Main page
METAR-TAF:

METAR-TAF

Airports :

Leipzig/Halle Airport

Leipzig, Germany

latitude: 51-25N, longitude: 012-14E, elevation: 144 m

Current weather observation

The report was made 21 minutes ago, at 23:50 UTC
Wind 8 kt from the South
Temperature 2°C
Humidity 87%
Pressure 1029 hPa
Visibility 10 km or more
no clouds below 1500 m and no cumulonimbus

METAR: EDDP 232350Z 18008KT CAVOK 02/M00 Q1029 NOSIG

Time: 01:11 (00:11 UTC)

Forecast

The report was made 1 hour and 11 minutes ago, at 23:00 UTC
Forecast valid from 24 at 00 UTC to 24 at 24 UTC
Wind 8 kt from the South/Southwest
Visibility 10 km or more
no clouds below 1500 m and no cumulonimbus
Probability 30% :
Temporary
from 24 at 04 UTC to 24 at 07 UTC
Visibility: 2500 m
patches of fog

TAF: EDDP 232300Z 2400/2424 20008KT CAVOK PROB30 TEMPO 2404/2407 2500 BCFG

Weather observations and forecasts of more than 4000 airports (METAR and TAF reports).

The available stations are represented by yellow and red dots on the map.

Hover mouse over dot to see the name of the station.

Then click to see weather observations and forecasts.

To change the map : click on the green buttons with a black cross to zoom in, on the green button with a dash to zoom out, or on the green arrows for adjacent maps.


METAR-TAF: